createdAt,value
2019-03-08T00:01:37.545Z,10.90
2019-03-08T00:04:08.124Z,10.80
2019-03-08T00:06:38.707Z,10.70
2019-03-08T00:09:09.459Z,10.60
2019-03-08T00:11:40.322Z,10.40
2019-03-08T00:14:11.002Z,10.40
2019-03-08T00:16:41.680Z,10.30
2019-03-08T00:19:12.147Z,10.20
2019-03-08T00:21:43.610Z,10.10
2019-03-08T00:24:14.341Z,10.10
2019-03-08T00:26:45.902Z,10.20
2019-03-08T00:29:16.595Z,10.20
2019-03-08T00:31:47.250Z,10.30
2019-03-08T00:34:17.790Z,10.30
2019-03-08T00:36:58.074Z,10.20
2019-03-08T00:39:28.629Z,10.20
2019-03-08T00:41:59.299Z,10.10
2019-03-08T00:44:29.830Z,10.00
2019-03-08T00:47:00.373Z,9.90
2019-03-08T00:49:30.903Z,9.70
2019-03-08T00:52:01.531Z,9.70
2019-03-08T00:54:32.301Z,9.70
2019-03-08T00:57:02.793Z,9.60
2019-03-08T00:59:33.632Z,9.40
2019-03-08T01:02:04.421Z,9.40
2019-03-08T01:04:35.092Z,9.40
2019-03-08T01:07:06.037Z,9.30
2019-03-08T01:09:36.673Z,9.30
2019-03-08T01:12:07.389Z,9.30
2019-03-08T01:14:37.896Z,9.30
2019-03-08T01:17:08.319Z,9.20
2019-03-08T01:19:39.176Z,9.10
2019-03-08T01:22:09.919Z,9.10
2019-03-08T01:24:41.921Z,9.10
2019-03-08T01:27:12.506Z,9.20
2019-03-08T01:29:43.288Z,9.20
2019-03-08T01:32:14.562Z,9.10
2019-03-08T01:34:45.222Z,9.10
2019-03-08T01:37:15.881Z,9.00
2019-03-08T01:39:46.376Z,8.80
2019-03-08T01:42:16.910Z,8.80
2019-03-08T01:44:50.723Z,8.80
2019-03-08T01:47:22.368Z,8.70
2019-03-08T01:49:52.909Z,8.60
2019-03-08T01:52:23.498Z,8.50
2019-03-08T01:54:54.038Z,8.50
2019-03-08T01:57:24.704Z,8.50
2019-03-08T01:59:55.217Z,8.50
2019-03-08T02:02:25.721Z,8.50
2019-03-08T02:04:56.176Z,8.40
2019-03-08T02:07:26.676Z,8.40
2019-03-08T02:09:57.244Z,8.40
2019-03-08T02:12:27.972Z,8.50
2019-03-08T02:14:58.502Z,8.60
2019-03-08T02:17:29.141Z,8.60
2019-03-08T02:19:59.772Z,8.70
2019-03-08T02:22:30.761Z,8.80
2019-03-08T02:25:01.346Z,8.90
2019-03-08T02:27:32.178Z,8.90
2019-03-08T02:30:02.966Z,8.90
2019-03-08T02:32:33.581Z,8.90
2019-03-08T02:35:04.673Z,8.80
2019-03-08T02:37:35.212Z,8.70
2019-03-08T02:40:27.243Z,8.60
2019-03-08T02:42:57.837Z,8.60
2019-03-08T02:45:28.611Z,8.40
2019-03-08T02:47:59.230Z,8.30
2019-03-08T02:50:29.870Z,8.10
2019-03-08T02:53:00.504Z,8.00
2019-03-08T02:55:31.022Z,7.80
2019-03-08T02:58:02.894Z,7.80
2019-03-08T03:00:39.860Z,7.70
2019-03-08T03:03:10.391Z,7.70
2019-03-08T03:05:41.130Z,7.60
2019-03-08T03:08:11.735Z,7.60
2019-03-08T03:10:42.383Z,7.60
2019-03-08T03:13:12.863Z,7.50
2019-03-08T03:15:43.650Z,7.50
2019-03-08T03:18:15.313Z,7.30
2019-03-08T03:20:45.835Z,7.40
2019-03-08T03:23:16.322Z,7.40
2019-03-08T03:25:46.889Z,7.50
2019-03-08T03:28:17.488Z,7.40
2019-03-08T03:30:48.024Z,7.40
2019-03-08T03:33:18.649Z,7.40
2019-03-08T03:35:49.063Z,7.40
2019-03-08T03:38:19.639Z,7.40
2019-03-08T03:40:50.283Z,7.30
2019-03-08T03:43:20.853Z,7.20
2019-03-08T03:45:51.512Z,7.20
2019-03-08T03:48:22.126Z,7.10
2019-03-08T03:50:53.221Z,7.00
2019-03-08T03:53:23.741Z,7.00
2019-03-08T03:55:54.371Z,7.00
2019-03-08T03:58:25.312Z,7.00
2019-03-08T04:00:56.105Z,6.80
2019-03-08T04:03:26.711Z,6.80
2019-03-08T04:05:57.402Z,6.90
2019-03-08T04:08:28.042Z,6.80
2019-03-08T04:10:58.787Z,6.80
2019-03-08T04:13:29.353Z,6.70
2019-03-08T04:16:00.028Z,6.70
2019-03-08T04:18:30.524Z,6.70
2019-03-08T04:21:01.101Z,6.70
2019-03-08T04:23:32.754Z,6.80
2019-03-08T04:26:03.303Z,6.80
2019-03-08T04:28:33.813Z,6.80
2019-03-08T04:31:04.434Z,6.80
2019-03-08T04:33:35.173Z,6.90
2019-03-08T04:36:06.003Z,6.90
2019-03-08T04:38:37.661Z,6.90
2019-03-08T04:41:08.205Z,6.90
2019-03-08T04:43:38.984Z,6.80
2019-03-08T04:46:09.785Z,6.80
2019-03-08T04:48:40.692Z,6.80
2019-03-08T04:51:11.208Z,6.90
2019-03-08T04:53:41.693Z,6.80
2019-03-08T04:56:12.181Z,6.80
2019-03-08T04:58:42.819Z,6.70
2019-03-08T05:01:13.545Z,6.70
2019-03-08T05:03:44.084Z,6.70
2019-03-08T05:06:14.714Z,6.70
2019-03-08T05:08:45.883Z,6.70
2019-03-08T05:11:16.796Z,6.70
2019-03-08T05:13:47.518Z,6.70
2019-03-08T05:16:18.163Z,6.70
2019-03-08T05:18:48.810Z,6.70
2019-03-08T05:21:19.415Z,6.70
2019-03-08T05:23:50.362Z,6.60
2019-03-08T05:26:20.895Z,6.70
2019-03-08T05:28:51.624Z,6.60
2019-03-08T05:31:22.111Z,6.60
2019-03-08T05:33:52.893Z,6.60
2019-03-08T05:36:23.824Z,6.60
2019-03-08T05:38:54.399Z,6.70
2019-03-08T05:41:25.083Z,6.70
2019-03-08T05:43:55.726Z,6.80
2019-03-08T05:46:26.284Z,6.80
2019-03-08T05:48:56.973Z,6.70
2019-03-08T05:51:27.622Z,6.80
2019-03-08T05:53:58.234Z,6.80
2019-03-08T05:56:28.869Z,6.80
2019-03-08T05:58:59.355Z,6.80
2019-03-08T06:01:29.820Z,6.80
2019-03-08T06:04:00.432Z,6.90
2019-03-08T06:06:31.188Z,7.00
2019-03-08T06:09:02.084Z,7.00
2019-03-08T06:11:34.525Z,7.00
2019-03-08T06:14:05.243Z,7.10
2019-03-08T06:16:35.753Z,7.30
2019-03-08T06:19:07.523Z,7.40
2019-03-08T06:21:38.047Z,7.40
2019-03-08T06:24:08.578Z,7.40
2019-03-08T06:26:39.211Z,7.50
2019-03-08T06:29:09.666Z,7.60
2019-03-08T06:31:40.274Z,7.70
2019-03-08T06:34:13.048Z,7.70
2019-03-08T06:36:43.793Z,7.80
2019-03-08T06:39:14.319Z,7.90
2019-03-08T06:41:44.940Z,8.00
2019-03-08T06:44:15.676Z,8.10
2019-03-08T06:46:46.291Z,8.10
2019-03-08T06:49:16.731Z,8.20
2019-03-08T06:51:47.157Z,8.30
2019-03-08T06:54:18.201Z,8.50
2019-03-08T06:56:50.763Z,8.60
2019-03-08T06:59:27.808Z,8.60
2019-03-08T07:01:58.415Z,8.70
2019-03-08T07:04:30.087Z,8.70
2019-03-08T07:07:00.677Z,8.80
2019-03-08T07:09:31.342Z,8.90
2019-03-08T07:12:01.833Z,9.00
2019-03-08T07:14:32.572Z,9.10
2019-03-08T07:17:03.087Z,9.20
2019-03-08T07:19:40.735Z,9.30
2019-03-08T07:22:14.500Z,9.40
2019-03-08T07:24:54.037Z,9.50
2019-03-08T07:27:43.701Z,9.60
2019-03-08T07:30:23.363Z,9.70
2019-03-08T07:33:12.933Z,9.70
2019-03-08T07:36:03.924Z,9.80
2019-03-08T07:38:51.157Z,9.90
2019-03-08T07:41:38.047Z,9.90
2019-03-08T07:44:27.697Z,9.90
2019-03-08T07:47:17.332Z,10.00
2019-03-08T07:50:09.263Z,10.10
2019-03-08T07:52:58.741Z,10.10
2019-03-08T07:55:43.243Z,10.20
2019-03-08T07:58:32.982Z,10.30
2019-03-08T08:01:12.808Z,10.40
2019-03-08T08:03:52.374Z,10.50
2019-03-08T08:06:31.111Z,10.50
2019-03-08T08:09:09.049Z,10.60
2019-03-08T08:11:49.747Z,10.60
2019-03-08T08:14:26.627Z,10.70
2019-03-08T08:17:07.207Z,10.80
2019-03-08T08:19:56.863Z,10.90
2019-03-08T08:22:46.446Z,10.90
2019-03-08T08:25:36.987Z,11.00
2019-03-08T08:28:21.406Z,11.00
2019-03-08T08:31:10.983Z,11.10
2019-03-08T08:34:00.553Z,11.10
2019-03-08T08:36:47.378Z,11.20
2019-03-08T08:39:29.135Z,11.20
2019-03-08T08:42:09.102Z,11.30
2019-03-08T08:44:48.457Z,11.50
2019-03-08T08:47:33.802Z,11.70
2019-03-08T08:50:23.593Z,11.70
2019-03-08T08:53:10.833Z,11.70
2019-03-08T08:55:49.349Z,11.70
2019-03-08T08:58:38.997Z,11.70
2019-03-08T09:01:28.518Z,11.80
2019-03-08T09:04:18.275Z,11.70
2019-03-08T09:07:05.312Z,11.80
2019-03-08T09:09:43.539Z,12.00
2019-03-08T09:12:34.213Z,12.20
2019-03-08T09:15:17.697Z,12.50
2019-03-08T09:19:51.874Z,12.70
2019-03-08T09:22:41.364Z,12.90
2019-03-08T09:25:33.358Z,12.80
2019-03-08T09:28:23.062Z,12.90
2019-03-08T09:31:05.178Z,12.90
2019-03-08T09:33:55.133Z,12.90
2019-03-08T09:36:44.679Z,12.60
2019-03-08T09:39:34.345Z,11.50
2019-03-08T09:42:11.260Z,12.30
2019-03-08T09:45:01.134Z,12.40
2019-03-08T09:47:50.767Z,12.60
2019-03-08T09:50:26.914Z,12.90
2019-03-08T09:53:07.078Z,13.10
2019-03-08T09:55:43.874Z,13.30
2019-03-08T09:58:33.493Z,13.30
2019-03-08T10:01:16.538Z,13.20
2019-03-08T10:04:04.754Z,13.10
2019-03-08T10:06:52.168Z,13.30
2019-03-08T10:09:41.744Z,13.40
2019-03-08T10:12:19.376Z,13.50
2019-03-08T10:14:57.207Z,13.70
2019-03-08T10:17:37.633Z,13.40
2019-03-08T10:20:23.574Z,13.60
2019-03-08T10:23:19.701Z,13.60
2019-03-08T10:26:04.483Z,13.40
2019-03-08T10:28:54.263Z,13.40
2019-03-08T10:31:33.057Z,13.30
2019-03-08T10:34:24.407Z,13.10
2019-03-08T10:37:06.733Z,12.90
2019-03-08T10:39:56.337Z,12.80
2019-03-08T10:42:45.914Z,12.40
2019-03-08T10:45:27.228Z,12.40
2019-03-08T10:48:16.933Z,12.80
2019-03-08T10:50:51.622Z,13.20
2019-03-08T10:53:30.860Z,13.70
2019-03-08T10:56:08.679Z,14.00
2019-03-08T10:58:55.214Z,14.30
2019-03-08T11:01:34.713Z,14.30
2019-03-08T11:04:19.658Z,13.90
2019-03-08T11:06:58.077Z,13.50
2019-03-08T11:09:43.659Z,13.70
2019-03-08T11:12:34.111Z,13.50
2019-03-08T11:15:24.938Z,13.40
2019-03-08T11:18:11.602Z,13.20
2019-03-08T11:20:55.053Z,13.00
2019-03-08T11:23:33.166Z,13.00
2019-03-08T11:26:22.929Z,12.80
2019-03-08T11:29:12.421Z,12.80
2019-03-08T11:31:48.956Z,13.00
2019-03-08T11:34:32.156Z,13.10
2019-03-08T11:37:09.302Z,13.10
2019-03-08T11:39:58.840Z,13.10
2019-03-08T11:42:39.523Z,13.10
2019-03-08T11:45:23.693Z,13.00
2019-03-08T11:48:13.470Z,13.00
2019-03-08T11:50:57.852Z,13.00
2019-03-08T11:53:56.042Z,13.00
2019-03-08T11:56:40.753Z,13.00
2019-03-08T11:59:23.536Z,12.90
2019-03-08T12:02:11.506Z,12.90
2019-03-08T12:04:53.183Z,13.00
2019-03-08T12:07:42.652Z,12.90
2019-03-08T12:10:21.675Z,12.70
2019-03-08T12:13:02.391Z,12.70
2019-03-08T12:15:52.023Z,12.70
2019-03-08T12:18:41.538Z,12.60
2019-03-08T12:21:31.018Z,12.50
2019-03-08T12:24:20.539Z,12.40
2019-03-08T12:27:00.734Z,12.30
2019-03-08T12:29:50.140Z,12.30
2019-03-08T12:32:39.645Z,12.20
2019-03-08T12:35:29.786Z,12.30
2019-03-08T12:38:19.192Z,12.30
2019-03-08T12:40:59.508Z,12.20
2019-03-08T12:43:48.983Z,12.20
2019-03-08T12:46:30.342Z,12.20
2019-03-08T12:49:19.836Z,12.20
2019-03-08T12:51:58.657Z,12.20
2019-03-08T12:54:48.416Z,12.20
2019-03-08T12:57:37.876Z,12.20
2019-03-08T13:00:30.046Z,12.20
2019-03-08T13:03:20.090Z,12.20
2019-03-08T13:06:09.632Z,12.10
2019-03-08T13:08:45.211Z,12.10
2019-03-08T13:11:15.758Z,12.00
2019-03-08T13:13:46.267Z,12.00
2019-03-08T13:16:16.752Z,12.00
2019-03-08T13:18:47.859Z,12.00
2019-03-08T13:21:18.337Z,12.10
2019-03-08T13:23:48.809Z,12.20
2019-03-08T13:26:20.465Z,12.40
2019-03-08T13:28:50.852Z,12.60
2019-03-08T13:31:21.403Z,12.70
2019-03-08T13:33:53.161Z,12.70
2019-03-08T13:36:24.100Z,12.90
2019-03-08T13:38:54.648Z,13.10
2019-03-08T13:41:25.365Z,13.20
2019-03-08T13:44:59.753Z,13.10
2019-03-08T13:53:14.537Z,13.10
2019-03-08T13:55:46.467Z,12.60
2019-03-08T13:58:17.057Z,12.60
2019-03-08T14:00:47.997Z,12.30
2019-03-08T14:03:18.813Z,12.20
2019-03-08T14:05:49.282Z,12.10
2019-03-08T14:08:21.850Z,12.00
2019-03-08T14:10:52.382Z,12.00
2019-03-08T14:13:23.802Z,12.00
2019-03-08T14:15:56.277Z,12.00
2019-03-08T14:18:26.892Z,12.00
2019-03-08T14:20:58.686Z,12.00
2019-03-08T14:23:29.210Z,12.10
2019-03-08T14:26:08.877Z,12.10
2019-03-08T14:28:40.499Z,12.10
2019-03-08T14:31:19.575Z,12.10
2019-03-08T14:33:50.076Z,12.00
2019-03-08T14:36:20.668Z,11.90
2019-03-08T14:38:51.147Z,11.90
2019-03-08T14:41:32.135Z,11.90
2019-03-08T14:44:08.437Z,11.90
2019-03-08T14:46:57.884Z,12.00
2019-03-08T14:49:39.530Z,12.00
2019-03-08T14:52:03.317Z,11.90
2019-03-08T14:54:33.845Z,11.90
2019-03-08T14:57:04.517Z,11.80
2019-03-08T14:59:35.046Z,11.80
2019-03-08T15:02:05.732Z,11.80
2019-03-08T15:04:36.683Z,11.70
2019-03-08T15:07:09.653Z,11.70
2019-03-08T15:09:40.334Z,11.70
2019-03-08T15:12:16.604Z,11.60
2019-03-08T15:14:43.345Z,11.60
2019-03-08T15:17:16.824Z,11.60
2019-03-08T15:19:46.303Z,11.60
2019-03-08T15:22:17.025Z,11.70
2019-03-08T15:24:47.614Z,11.70
2019-03-08T15:27:18.400Z,11.80
2019-03-08T15:29:54.564Z,11.80
2019-03-08T15:32:21.213Z,11.70
2019-03-08T15:34:51.742Z,11.70
2019-03-08T15:37:22.498Z,11.60
2019-03-08T15:39:53.454Z,11.60
2019-03-08T15:42:24.155Z,11.50
2019-03-08T15:44:54.969Z,11.50
2019-03-08T15:47:25.656Z,11.40
2019-03-08T15:49:57.474Z,11.30
2019-03-08T15:52:28.154Z,11.30
2019-03-08T15:54:58.880Z,11.30
2019-03-08T15:57:29.577Z,11.20
2019-03-08T16:00:00.362Z,11.20
2019-03-08T16:02:31.598Z,11.20
2019-03-08T16:05:03.886Z,11.10
2019-03-08T16:07:34.792Z,11.10
2019-03-08T16:10:06.159Z,11.00
2019-03-08T16:12:37.153Z,11.00
2019-03-08T16:15:08.172Z,10.90
2019-03-08T16:17:39.038Z,11.00
2019-03-08T16:20:11.792Z,11.00
2019-03-08T16:22:42.988Z,11.00
2019-03-08T16:25:14.563Z,10.90
2019-03-08T16:27:46.465Z,10.80
2019-03-08T16:30:22.060Z,10.50
2019-03-08T16:33:05.968Z,10.10
2019-03-08T16:35:43.335Z,9.70
2019-03-08T16:38:31.206Z,9.50
2019-03-08T16:41:10.053Z,9.40
2019-03-08T16:43:59.611Z,9.30
2019-03-08T16:46:49.333Z,9.30
2019-03-08T16:49:25.934Z,9.40
2019-03-08T16:52:15.662Z,9.30
2019-03-08T16:55:05.196Z,9.40
2019-03-08T16:57:53.863Z,9.40
2019-03-08T17:00:43.842Z,9.40
2019-03-08T17:03:25.720Z,9.40
2019-03-08T17:06:15.609Z,9.50
2019-03-08T17:09:02.617Z,9.50
2019-03-08T17:11:47.576Z,9.60
2019-03-08T17:14:37.431Z,9.60
2019-03-08T17:17:23.857Z,9.60
2019-03-08T17:20:08.603Z,9.60
2019-03-08T17:22:58.525Z,9.50
2019-03-08T17:25:48.244Z,9.40
2019-03-08T17:28:37.945Z,9.30
2019-03-08T17:31:27.543Z,9.10
2019-03-08T17:34:15.193Z,9.10
2019-03-08T17:36:58.412Z,9.00
2019-03-08T17:39:48.075Z,8.90
2019-03-08T17:42:36.806Z,8.80
2019-03-08T17:45:23.273Z,8.80
2019-03-08T17:48:13.112Z,8.80
2019-03-08T17:51:02.931Z,8.80
2019-03-08T17:53:53.082Z,8.80
2019-03-08T17:56:41.333Z,8.70
2019-03-08T17:59:19.409Z,8.70
2019-03-08T18:02:09.354Z,8.70
2019-03-08T18:04:59.037Z,8.60
2019-03-08T18:07:39.077Z,8.60
2019-03-08T18:10:29.117Z,8.50
2019-03-08T18:13:09.453Z,8.60
2019-03-08T18:15:52.554Z,8.50
2019-03-08T18:18:43.218Z,8.50
2019-03-08T18:21:31.254Z,8.50
2019-03-08T18:24:23.641Z,8.40
2019-03-08T18:27:08.515Z,8.30
2019-03-08T18:29:48.055Z,8.30
2019-03-08T18:32:37.853Z,8.30
2019-03-08T18:35:21.232Z,8.20
2019-03-08T18:37:59.562Z,8.20
2019-03-08T18:40:38.883Z,8.10
2019-03-08T18:43:40.663Z,8.10
2019-03-08T18:46:21.715Z,8.10
2019-03-08T18:49:01.802Z,8.00
2019-03-08T18:51:46.772Z,8.00
2019-03-08T18:54:31.327Z,8.00
2019-03-08T18:57:21.270Z,8.00
2019-03-08T19:00:11.255Z,7.90
2019-03-08T19:02:51.420Z,7.90
2019-03-08T19:05:41.201Z,7.90
2019-03-08T19:08:20.852Z,7.90
2019-03-08T19:11:00.494Z,7.90
2019-03-08T19:13:37.531Z,7.90
2019-03-08T19:16:20.247Z,7.90
2019-03-08T19:19:10.279Z,7.80
2019-03-08T19:21:50.443Z,7.80
2019-03-08T19:24:40.086Z,7.80
2019-03-08T19:27:29.814Z,7.80
2019-03-08T19:30:13.924Z,7.70
2019-03-08T19:32:58.574Z,7.70
2019-03-08T19:35:39.865Z,7.70
2019-03-08T19:38:29.778Z,7.70
2019-03-08T19:41:14.894Z,7.70
2019-03-08T19:44:04.771Z,7.60
2019-03-08T19:46:42.191Z,7.60
2019-03-08T19:49:31.974Z,7.60
2019-03-08T19:52:21.786Z,7.50
2019-03-08T19:54:56.158Z,7.50
2019-03-08T19:57:37.988Z,7.50
2019-03-08T20:00:28.801Z,7.40
2019-03-08T20:03:17.417Z,7.40
2019-03-08T20:06:00.692Z,7.30
2019-03-08T20:08:51.546Z,7.30
2019-03-08T20:11:41.320Z,7.20
2019-03-08T20:14:31.621Z,7.20
2019-03-08T20:17:23.301Z,7.10
2019-03-08T20:20:12.951Z,7.00
2019-03-08T20:22:55.805Z,6.90
2019-03-08T20:25:34.175Z,6.90
2019-03-08T20:28:12.054Z,6.80
2019-03-08T20:31:01.873Z,6.70
2019-03-08T20:33:42.001Z,6.60
2019-03-08T20:36:34.532Z,6.50
2019-03-08T20:39:26.153Z,6.50
2019-03-08T20:42:01.711Z,6.40
2019-03-08T20:44:47.791Z,6.40
2019-03-08T20:47:22.046Z,6.30
2019-03-08T20:49:55.288Z,6.30
2019-03-08T20:52:26.051Z,6.30
2019-03-08T20:54:56.869Z,6.30
2019-03-08T20:57:27.573Z,6.20
2019-03-08T20:59:58.144Z,6.30
2019-03-08T21:02:28.659Z,6.20
2019-03-08T21:04:59.396Z,6.10
2019-03-08T21:07:29.893Z,6.10
2019-03-08T21:10:01.082Z,6.00
2019-03-08T21:12:32.973Z,6.10
2019-03-08T21:15:04.097Z,6.00
2019-03-08T21:17:34.864Z,6.00
2019-03-08T21:20:06.409Z,6.00
2019-03-08T21:22:37.112Z,6.00
2019-03-08T21:25:09.087Z,6.00
2019-03-08T21:27:40.920Z,6.00
2019-03-08T21:30:14.853Z,6.00
2019-03-08T21:32:48.015Z,5.90
2019-03-08T21:35:18.719Z,5.80
2019-03-08T21:37:49.639Z,5.80
2019-03-08T21:40:20.283Z,5.70
2019-03-08T21:42:50.854Z,5.60
2019-03-08T21:45:21.513Z,5.60
2019-03-08T21:47:52.188Z,5.50
2019-03-08T21:50:23.269Z,5.40
2019-03-08T21:52:53.913Z,5.30
2019-03-08T21:55:24.642Z,5.30
2019-03-08T21:57:55.262Z,5.20
2019-03-08T22:00:26.519Z,5.10
2019-03-08T22:02:57.008Z,5.10
2019-03-08T22:05:30.763Z,5.10
2019-03-08T22:08:01.174Z,5.10
2019-03-08T22:10:41.127Z,5.10
2019-03-08T22:13:11.740Z,5.10
2019-03-08T22:15:42.384Z,5.00
2019-03-08T22:18:14.095Z,4.90
2019-03-08T22:20:46.918Z,4.90
2019-03-08T22:23:17.518Z,4.90
2019-03-08T22:25:47.973Z,4.90
2019-03-08T22:28:18.612Z,4.80
2019-03-08T22:30:49.123Z,4.70
2019-03-08T22:33:19.779Z,4.70
2019-03-08T22:35:50.386Z,4.60
2019-03-08T22:38:21.019Z,4.60
2019-03-08T22:40:54.492Z,4.50
2019-03-08T22:43:24.939Z,4.50
2019-03-08T22:45:55.485Z,4.50
2019-03-08T22:48:25.964Z,4.50
2019-03-08T22:50:56.387Z,4.50
2019-03-08T22:53:26.969Z,4.50
2019-03-08T22:55:57.404Z,4.50
2019-03-08T22:58:27.952Z,4.60
2019-03-08T23:01:07.353Z,4.60
2019-03-08T23:03:39.633Z,4.50
2019-03-08T23:06:11.383Z,4.50
2019-03-08T23:08:41.930Z,4.40
2019-03-08T23:11:12.639Z,4.30
2019-03-08T23:13:43.390Z,4.20
2019-03-08T23:16:14.010Z,4.10
2019-03-08T23:18:47.967Z,4.20
2019-03-08T23:21:18.647Z,4.20
2019-03-08T23:23:49.291Z,4.20
2019-03-08T23:26:19.875Z,4.30
2019-03-08T23:29:05.178Z,4.20
2019-03-08T23:31:39.481Z,4.10
2019-03-08T23:34:09.935Z,4.10
2019-03-08T23:36:40.663Z,4.10
2019-03-08T23:39:11.263Z,4.10
2019-03-08T23:41:42.975Z,4.00
2019-03-08T23:44:13.446Z,3.90
2019-03-08T23:46:44.004Z,3.80
2019-03-08T23:49:14.508Z,3.80
2019-03-08T23:51:44.902Z,3.80
2019-03-08T23:54:15.501Z,3.70
2019-03-08T23:56:45.952Z,3.70
2019-03-08T23:59:16.659Z,3.70
